Time;durP1;ratioP1;P1;durP2;ratioP2;P2;SDS_P1;SDS_P2;PMS_P1;PMS_P2;Temp;Humidity;BMP_temperature;BMP_pressure;BME280_temperature;BME280_humidity;BME280_pressure;Samples;Min_cycle;Max_cycle;Signal;HPM_P1;HPM_P2
2021/07/08 00:00:36;;;;;;;5.50;4.82;;;;;;;16.22;nan;101451.28;4961421;28;20054;-81
2021/07/08 00:03:03;;;;;;;6.30;5.30;;;;;;;16.36;nan;101453.53;4969572;28;20519;-81
2021/07/08 00:05:37;;;;;;;5.20;4.70;;;;;;;16.20;nan;101455.81;4970024;28;20108;-83
2021/07/08 00:08:04;;;;;;;7.05;5.20;;;;;;;16.19;nan;101448.72;4971483;28;20526;-81
2021/07/08 00:10:40;;;;;;;6.82;4.50;;;;;;;16.18;nan;101446.97;4968070;28;20046;-82
2021/07/08 00:13:08;;;;;;;7.20;5.65;;;;;;;16.15;nan;101447.09;4968818;28;20042;-81
2021/07/08 00:15:38;;;;;;;5.50;4.90;;;;;;;16.18;nan;101444.31;4968322;28;20499;-81
2021/07/08 00:18:08;;;;;;;6.13;4.78;;;;;;;16.13;nan;101443.56;4988640;28;20181;-82
2021/07/08 00:20:37;;;;;;;6.35;5.70;;;;;;;16.18;nan;101439.00;4982111;28;20963;-81
2021/07/08 00:23:04;;;;;;;5.38;4.88;;;;;;;16.12;nan;101443.63;4972859;28;20046;-82
2021/07/08 00:25:32;;;;;;;6.00;5.38;;;;;;;15.97;nan;101439.63;4970122;28;20050;-81
2021/07/08 00:27:59;;;;;;;5.78;5.20;;;;;;;15.98;nan;101436.94;4971239;28;20573;-81
2021/07/08 00:30:26;;;;;;;6.55;5.88;;;;;;;15.94;nan;101437.94;4988458;28;20506;-81
2021/07/08 00:32:53;;;;;;;6.38;4.88;;;;;;;15.84;nan;101440.94;4989024;28;20400;-81
2021/07/08 00:35:25;;;;;;;6.07;5.20;;;;;;;15.75;nan;101445.63;4973368;28;20087;-81
2021/07/08 00:37:53;;;;;;;5.40;4.88;;;;;;;15.76;nan;101435.84;4955056;28;20050;-82
2021/07/08 00:40:22;;;;;;;5.97;5.38;;;;;;;15.74;nan;101451.00;4952797;28;20051;-82
2021/07/08 00:42:50;;;;;;;5.60;5.10;;;;;;;15.64;nan;101461.06;4970730;28;20530;-81
2021/07/08 00:45:21;;;;;;;6.13;5.00;;;;;;;15.62;nan;101454.88;4980608;28;20084;-82
2021/07/08 00:47:52;;;;;;;7.03;5.28;;;;;;;15.60;nan;101450.47;4958576;28;20047;-81
2021/07/08 00:50:23;;;;;;;7.57;5.50;;;;;;;15.71;nan;101448.41;4970680;28;20108;-82
2021/07/08 00:52:49;;;;;;;6.20;5.60;;;;;;;15.61;nan;101445.13;4970429;28;20046;-82
2021/07/08 00:55:17;;;;;;;6.00;5.50;;;;;;;15.53;nan;101447.13;4971337;28;20089;-81
2021/07/08 00:57:53;;;;;;;6.88;5.68;;;;;;;15.53;nan;101443.56;4965452;28;20056;-81
2021/07/08 01:00:30;;;;;;;5.25;4.75;;;;;;;15.51;nan;101445.41;4971804;28;20049;-81
2021/07/08 01:02:58;;;;;;;7.53;5.68;;;;;;;15.54;nan;101446.19;4972064;28;20050;-81
2021/07/08 01:05:32;;;;;;;7.20;5.60;;;;;;;15.54;nan;101438.19;4970696;28;20035;-82
2021/07/08 01:08:00;;;;;;;6.53;5.72;;;;;;;15.46;nan;101432.22;4954166;28;20137;-81
2021/07/08 01:10:28;;;;;;;6.85;6.10;;;;;;;15.43;nan;101427.88;4952324;28;20105;-81
2021/07/08 01:12:54;;;;;;;6.10;5.38;;;;;;;15.42;nan;101428.78;4989941;28;20042;-81
2021/07/08 01:15:24;;;;;;;7.22;5.75;;;;;;;15.41;nan;101428.84;4954866;28;20050;-81
2021/07/08 01:17:51;;;;;;;6.70;5.97;;;;;;;15.37;nan;101432.47;4972810;28;20044;-82
2021/07/08 01:20:22;;;;;;;7.60;5.82;;;;;;;15.32;nan;101424.63;4970653;28;20062;-81
2021/07/08 01:22:57;;;;;;;6.85;6.15;;;;;;;15.30;nan;101414.94;4970499;28;21766;-82
2021/07/08 01:25:30;;;;;;;7.00;6.30;;;;;;;15.35;nan;101411.22;4956894;28;20104;-81
2021/07/08 01:28:00;;;;;;;11.15;6.80;;;;;;;15.33;nan;101397.09;4974380;28;20039;-81
2021/07/08 01:30:28;;;;;;;6.78;6.07;;;;;;;15.20;nan;101401.88;4970221;28;20542;-81
2021/07/08 01:32:55;;;;;;;6.95;6.22;;;;;;;15.17;nan;101412.63;4958055;28;20039;-81
2021/07/08 01:35:23;;;;;;;7.40;6.70;;;;;;;15.17;nan;101415.28;4970640;28;20097;-82
2021/07/08 01:37:50;;;;;;;6.60;6.00;;;;;;;15.12;nan;101416.31;4973227;28;20396;-83
2021/07/08 01:40:22;;;;;;;6.40;5.60;;;;;;;15.11;nan;101417.22;4970360;28;20038;-82
2021/07/08 01:42:53;;;;;;;7.13;5.75;;;;;;;15.10;nan;101427.00;4955694;28;20137;-82
2021/07/08 01:45:20;;;;;;;7.50;6.75;;;;;;;15.10;nan;101424.34;4973248;28;20050;-82
2021/07/08 01:47:47;;;;;;;6.38;5.65;;;;;;;15.09;nan;101421.72;4972684;28;20076;-82
2021/07/08 01:50:16;;;;;;;6.80;5.70;;;;;;;15.08;nan;101415.53;4970978;28;20040;-81
2021/07/08 01:52:46;;;;;;;6.03;5.43;;;;;;;15.07;nan;101419.13;4973642;28;20131;-82
2021/07/08 01:55:13;;;;;;;7.20;6.50;;;;;;;15.03;nan;101428.09;4950300;28;20078;-82
2021/07/08 01:57:45;;;;;;;5.70;5.07;;;;;;;15.01;nan;101419.28;4988907;28;20104;-83
2021/07/08 02:00:13;;;;;;;6.00;5.25;;;;;;;14.94;nan;101423.00;4953149;28;20133;-82
2021/07/08 02:02:41;;;;;;;7.25;5.88;;;;;;;14.96;nan;101429.16;4972154;28;20097;-82
2021/07/08 02:05:08;;;;;;;6.32;5.65;;;;;;;14.91;nan;101444.38;4987598;28;20054;-82
2021/07/08 02:07:36;;;;;;;6.47;5.63;;;;;;;14.89;nan;101444.44;4973023;28;20038;-82
2021/07/08 02:10:07;;;;;;;7.00;6.32;;;;;;;14.90;nan;101443.50;4980622;28;20051;-82
2021/07/08 02:12:34;;;;;;;8.80;6.25;;;;;;;14.86;nan;101443.63;4987561;28;20085;-82
2021/07/08 02:15:02;;;;;;;6.93;6.18;;;;;;;14.84;nan;101451.63;4964327;28;20042;-82
2021/07/08 02:17:29;;;;;;;6.85;6.25;;;;;;;14.83;nan;101449.91;4989294;28;20038;-82
2021/07/08 02:19:56;;;;;;;9.18;6.28;;;;;;;14.80;nan;101443.78;4960956;28;20046;-83
2021/07/08 02:22:22;;;;;;;8.27;6.57;;;;;;;14.75;nan;101451.00;4960687;28;20058;-82
2021/07/08 02:24:49;;;;;;;8.45;6.03;;;;;;;14.71;nan;101441.34;4961878;28;20042;-83
2021/07/08 02:27:16;;;;;;;8.00;5.75;;;;;;;14.70;nan;101450.22;4961668;28;20095;-82
2021/07/08 02:29:43;;;;;;;6.68;5.78;;;;;;;14.69;nan;101441.38;4987140;28;20038;-82
2021/07/08 02:32:09;;;;;;;6.05;5.43;;;;;;;14.66;nan;101441.47;4976671;28;20039;-82
2021/07/08 02:34:37;;;;;;;6.45;5.53;;;;;;;14.60;nan;101445.13;4961497;28;20046;-83
2021/07/08 02:37:05;;;;;;;6.65;5.85;;;;;;;14.52;nan;101443.59;4974344;28;20042;-83
2021/07/08 02:39:32;;;;;;;6.43;5.38;;;;;;;14.52;nan;101441.78;4958434;28;20046;-82
2021/07/08 02:41:59;;;;;;;6.10;5.10;;;;;;;14.54;nan;101441.75;4974609;28;20053;-82
2021/07/08 02:44:26;;;;;;;7.95;6.47;;;;;;;14.56;nan;101443.47;4958277;28;20051;-82
2021/07/08 02:46:53;;;;;;;7.32;6.00;;;;;;;14.57;nan;101445.22;4958510;28;20050;-82
2021/07/08 02:49:20;;;;;;;6.93;6.22;;;;;;;14.57;nan;101445.22;5003064;23;20026;-79
2021/07/08 02:51:47;;;;;;;7.28;6.03;;;;;;;14.46;nan;101438.41;4957095;28;20404;-81
2021/07/08 02:54:14;;;;;;;7.10;6.40;;;;;;;14.49;nan;101439.22;4957497;28;20057;-78
2021/07/08 02:56:40;;;;;;;6.55;5.85;;;;;;;14.51;nan;101439.19;4959500;28;20380;-82
2021/07/08 02:59:07;;;;;;;6.95;5.50;;;;;;;14.44;nan;101438.41;4952979;28;20043;-81
2021/07/08 03:01:34;;;;;;;6.97;6.00;;;;;;;14.41;nan;101438.50;4954875;28;20117;-81
2021/07/08 03:04:01;;;;;;;7.38;5.68;;;;;;;14.43;nan;101438.44;4941764;28;20089;-82
2021/07/08 03:06:28;;;;;;;7.47;6.30;;;;;;;14.40;nan;101436.75;4956812;28;20598;-82
2021/07/08 03:08:54;;;;;;;8.48;6.30;;;;;;;14.43;nan;101444.66;4956754;28;20179;-81
2021/07/08 03:11:23;;;;;;;6.65;5.90;;;;;;;14.40;nan;101443.84;4939192;28;20050;-82
2021/07/08 03:13:50;;;;;;;6.53;5.93;;;;;;;14.40;nan;101441.19;4957323;28;20109;-81
2021/07/08 03:16:17;;;;;;;8.05;6.65;;;;;;;14.41;nan;101434.97;4935974;29;20070;-82
2021/07/08 03:18:44;;;;;;;6.57;5.88;;;;;;;14.36;nan;101435.94;4939509;28;20066;-79
2021/07/08 03:21:14;;;;;;;6.88;6.25;;;;;;;14.35;nan;101435.97;4936814;28;20064;-81
2021/07/08 03:23:41;;;;;;;6.82;5.53;;;;;;;14.34;nan;101439.56;4940114;28;20053;-80
2021/07/08 03:26:08;;;;;;;7.70;6.60;;;;;;;14.32;nan;101439.59;4938985;28;20038;-82
2021/07/08 03:28:35;;;;;;;6.35;5.75;;;;;;;14.39;nan;101450.97;4938135;28;20050;-81
2021/07/08 03:31:01;;;;;;;6.05;5.45;;;;;;;14.37;nan;101437.69;4954277;28;20051;-81
2021/07/08 03:33:28;;;;;;;7.10;6.35;;;;;;;14.40;nan;101439.41;4940608;28;20046;-79
2021/07/08 03:35:55;;;;;;;7.30;6.38;;;;;;;14.44;nan;101437.53;4937788;28;20042;-80
2021/07/08 03:38:22;;;;;;;7.20;5.75;;;;;;;14.43;nan;101447.31;4940110;28;20039;-82
2021/07/08 03:40:49;;;;;;;6.47;5.78;;;;;;;14.48;nan;101450.78;4938039;28;20058;-82
2021/07/08 03:43:15;;;;;;;6.40;5.75;;;;;;;14.48;nan;101448.13;4940572;28;20045;-81
2021/07/08 03:45:42;;;;;;;7.30;6.00;;;;;;;14.54;nan;101453.25;4935857;28;20043;-81
2021/07/08 03:48:09;;;;;;;7.18;6.25;;;;;;;14.56;nan;101454.13;4939279;28;20046;-81
2021/07/08 03:50:36;;;;;;;7.22;5.80;;;;;;;14.59;nan;101463.81;4937234;28;20173;-81
2021/07/08 03:53:02;;;;;;;7.25;6.22;;;;;;;14.65;nan;101471.63;4939017;28;20067;-82
2021/07/08 03:55:29;;;;;;;6.80;6.10;;;;;;;14.72;nan;101470.59;4937692;28;20078;-81
2021/07/08 03:57:56;;;;;;;6.38;5.78;;;;;;;14.72;nan;101473.25;4939146;28;20046;-81
2021/07/08 04:00:32;;;;;;;7.22;6.50;;;;;;;14.80;nan;101473.06;4951566;28;20046;-81
2021/07/08 04:03:02;;;;;;;8.15;5.97;;;;;;;14.86;nan;101464.91;4937675;28;20097;-81
2021/07/08 04:05:29;;;;;;;7.05;6.25;;;;;;;14.93;nan;101477.13;4938697;28;20109;-81
2021/07/08 04:07:56;;;;;;;7.78;6.93;;;;;;;14.99;nan;101481.44;4938963;28;20071;-79
2021/07/08 04:10:23;;;;;;;7.82;6.35;;;;;;;15.08;nan;101482.06;4935432;28;20097;-81
2021/07/08 04:12:50;;;;;;;7.55;6.75;;;;;;;15.18;nan;101486.22;4939180;28;20058;-82
2021/07/08 04:15:17;;;;;;;7.68;6.88;;;;;;;15.25;nan;101488.75;4937190;28;20039;-82
2021/07/08 04:17:44;;;;;;;6.53;5.93;;;;;;;15.31;nan;101483.25;4963981;28;20038;-81
2021/07/08 04:20:15;;;;;;;6.78;6.07;;;;;;;15.38;nan;101492.81;4945276;28;20043;-83
2021/07/08 04:22:42;;;;;;;8.85;6.10;;;;;;;15.49;nan;101496.06;4956552;28;20047;-81
2021/07/08 04:25:10;;;;;;;6.95;6.13;;;;;;;15.49;nan;101490.75;4956815;28;20042;-83
2021/07/08 04:27:37;;;;;;;8.75;6.03;;;;;;;15.67;nan;101495.59;4942738;28;20504;-81
2021/07/08 04:30:05;;;;;;;6.30;5.68;;;;;;;15.66;nan;101496.50;4939500;28;20137;-83
2021/07/08 04:32:31;;;;;;;6.57;5.85;;;;;;;15.59;nan;101492.22;4938382;28;20116;-83
2021/07/08 04:34:58;;;;;;;7.57;6.45;;;;;;;15.68;nan;101494.66;4941761;28;20069;-83
2021/07/08 04:37:25;;;;;;;6.40;5.72;;;;;;;15.65;nan;101491.22;4940948;28;20077;-83
2021/07/08 04:39:52;;;;;;;6.82;6.07;;;;;;;15.73;nan;101492.75;4941363;28;20342;-83
2021/07/08 04:42:19;;;;;;;5.72;5.20;;;;;;;15.69;nan;101493.75;4941002;28;20097;-81
2021/07/08 04:44:47;;;;;;;6.70;5.68;;;;;;;15.79;nan;101493.47;4955654;28;20039;-83
2021/07/08 04:47:14;;;;;;;8.35;6.22;;;;;;;15.90;nan;101480.75;4941651;28;20081;-83
2021/07/08 04:49:41;;;;;;;6.90;6.18;;;;;;;15.89;nan;101479.88;4941727;28;20117;-83
2021/07/08 04:52:08;;;;;;;6.47;5.88;;;;;;;15.92;nan;101484.22;4939553;28;20073;-82
2021/07/08 04:54:35;;;;;;;7.03;5.93;;;;;;;15.98;nan;101486.72;4954619;28;20408;-83
2021/07/08 04:57:02;;;;;;;7.22;6.55;;;;;;;15.89;nan;101486.97;4941087;28;20038;-82
2021/07/08 04:59:28;;;;;;;6.70;5.72;;;;;;;15.91;nan;101491.34;4955123;28;20043;-83
2021/07/08 05:01:55;;;;;;;6.40;5.65;;;;;;;15.87;nan;101491.47;4953516;28;20047;-84
2021/07/08 05:04:22;;;;;;;7.85;7.07;;;;;;;15.97;nan;101488.47;4958469;28;20046;-82
2021/07/08 05:06:48;;;;;;;6.47;5.88;;;;;;;16.05;nan;101483.78;4954079;28;20046;-83
2021/07/08 05:09:15;;;;;;;6.65;5.80;;;;;;;16.17;nan;101492.38;4941560;28;20101;-83
2021/07/08 05:11:42;;;;;;;6.35;5.40;;;;;;;16.25;nan;101488.53;4939820;28;20039;-82
2021/07/08 05:14:09;;;;;;;7.18;5.28;;;;;;;16.29;nan;101490.16;4941841;28;20093;-83
2021/07/08 05:16:36;;;;;;;5.53;4.97;;;;;;;16.49;nan;101486.03;4940075;28;20046;-79
2021/07/08 05:19:03;;;;;;;6.88;5.30;;;;;;;16.83;nan;101481.38;4939651;28;20038;-83
2021/07/08 05:21:30;;;;;;;5.82;5.22;;;;;;;16.59;nan;101484.81;4937274;28;20078;-80
2021/07/08 05:24:00;;;;;;;6.00;5.40;;;;;;;16.68;nan;101472.97;4956607;28;20069;-83
2021/07/08 05:26:27;;;;;;;7.57;6.75;;;;;;;16.77;nan;101470.91;4940916;28;20046;-81
2021/07/08 05:28:54;;;;;;;7.30;6.25;;;;;;;16.71;nan;101473.75;4939913;28;20567;-83
2021/07/08 05:31:21;;;;;;;7.57;6.88;;;;;;;16.86;nan;101475.06;4938637;28;20108;-82
2021/07/08 05:33:47;;;;;;;6.47;5.88;;;;;;;16.90;nan;101474.03;4936566;28;20042;-83
2021/07/08 05:36:14;;;;;;;7.20;6.50;;;;;;;17.03;nan;101477.16;4955045;28;20621;-84
2021/07/08 05:38:41;;;;;;;6.25;5.65;;;;;;;17.22;nan;101472.03;4955429;28;20035;-82
2021/07/08 05:41:08;;;;;;;7.45;5.88;;;;;;;17.36;nan;101480.44;4938618;28;20110;-84
2021/07/08 05:43:35;;;;;;;6.70;5.85;;;;;;;17.41;nan;101479.38;4934846;29;20054;-80
2021/07/08 05:46:01;;;;;;;5.30;4.80;;;;;;;17.52;nan;101475.44;4953472;28;20093;-84
2021/07/08 05:48:28;;;;;;;5.65;5.15;;;;;;;17.71;nan;101481.88;4955068;28;20046;-82
2021/07/08 05:50:55;;;;;;;6.05;5.45;;;;;;;18.08;nan;101484.03;4937954;28;20093;-82
2021/07/08 05:53:22;;;;;;;6.75;4.75;;;;;;;19.30;nan;101486.19;4939844;28;20501;-83
2021/07/08 05:55:49;;;;;;;4.70;4.10;;;;;;;19.51;nan;101492.44;4939052;28;20104;-84
2021/07/08 05:58:15;;;;;;;5.60;5.00;;;;;;;19.59;nan;101488.50;4950413;28;20406;-82
2021/07/08 06:00:42;;;;;;;5.43;4.97;;;;;;;19.42;nan;101488.31;4949440;28;20043;-83
2021/07/08 06:03:09;;;;;;;4.97;4.57;;;;;;;19.32;nan;101489.66;4940128;28;20057;-84
2021/07/08 06:05:35;;;;;;;5.35;4.85;;;;;;;19.20;nan;101495.56;4939759;28;20133;-83
2021/07/08 06:08:02;;;;;;;5.05;4.60;;;;;;;19.18;nan;101494.78;4956983;28;20171;-82
2021/07/08 06:10:29;;;;;;;5.82;5.18;;;;;;;19.27;nan;101495.25;4937690;28;20038;-83
2021/07/08 06:12:56;;;;;;;4.72;4.30;;;;;;;19.30;nan;101495.09;4972936;28;20105;-82
2021/07/08 06:15:24;;;;;;;5.57;5.07;;;;;;;19.41;nan;101494.63;4936729;28;20046;-84
2021/07/08 06:17:50;;;;;;;5.78;5.00;;;;;;;19.34;nan;101493.16;4956342;28;20047;-83
2021/07/08 06:20:17;;;;;;;5.35;4.85;;;;;;;19.34;nan;101493.16;4939098;28;20042;-84
2021/07/08 06:22:44;;;;;;;5.65;4.65;;;;;;;19.29;nan;101495.16;4921675;29;20043;-82
2021/07/08 06:25:12;;;;;;;5.05;4.57;;;;;;;19.34;nan;101495.84;4944470;28;20381;-83
2021/07/08 06:27:39;;;;;;;5.32;4.82;;;;;;;19.37;nan;101496.56;4964180;28;20504;-84
2021/07/08 06:30:07;;;;;;;6.90;5.00;;;;;;;19.39;nan;101496.50;4935825;28;20185;-84
2021/07/08 06:32:34;;;;;;;6.55;4.85;;;;;;;19.41;nan;101494.63;4940608;28;20100;-84
2021/07/08 06:35:01;;;;;;;6.15;4.82;;;;;;;19.30;nan;101486.19;4941904;28;20035;-84
2021/07/08 06:37:32;;;;;;;7.05;4.68;;;;;;;19.39;nan;101486.66;4943694;28;20050;-84
2021/07/08 06:39:58;;;;;;;5.55;4.97;;;;;;;19.40;nan;101491.06;4943326;28;20053;-82
2021/07/08 06:42:25;;;;;;;6.25;4.93;;;;;;;19.66;nan;101497.13;4938236;29;20191;-85
2021/07/08 06:44:52;;;;;;;5.00;4.57;;;;;;;19.74;nan;101502.13;4941121;28;20042;-84
2021/07/08 06:47:20;;;;;;;5.60;4.97;;;;;;;19.70;nan;101505.91;4941082;28;20475;-83
2021/07/08 06:49:47;;;;;;;5.57;4.93;;;;;;;19.57;nan;101500.22;4974975;28;20041;-82
2021/07/08 06:52:16;;;;;;;5.95;5.35;;;;;;;19.70;nan;101495.19;4958885;28;20043;-84
2021/07/08 06:54:43;;;;;;;5.18;4.68;;;;;;;19.59;nan;101498.31;4944924;28;20050;-84
2021/07/08 06:57:11;;;;;;;5.20;4.80;;;;;;;19.51;nan;101493.28;4956751;28;20051;-84
2021/07/08 06:59:38;;;;;;;7.93;4.82;;;;;;;19.66;nan;101500.66;4942396;28;20551;-84
2021/07/08 07:02:04;;;;;;;4.88;4.47;;;;;;;19.56;nan;101495.75;4940053;28;20042;-85
2021/07/08 07:04:31;;;;;;;5.47;4.97;;;;;;;19.39;nan;101475.06;4930307;29;20047;-86
2021/07/08 07:06:58;;;;;;;4.97;4.57;;;;;;;19.58;nan;101477.81;4946953;28;20054;-84
2021/07/08 07:09:25;;;;;;;5.70;4.53;;;;;;;19.59;nan;101487.59;4946171;28;20038;-82
2021/07/08 07:11:52;;;;;;;5.30;4.80;;;;;;;19.38;nan;101490.28;4946505;28;20050;-84
2021/07/08 07:14:18;;;;;;;4.90;4.50;;;;;;;19.51;nan;101495.09;4945251;28;20054;-84
2021/07/08 07:16:45;;;;;;;4.88;4.30;;;;;;;19.45;nan;101488.19;4942251;28;20077;-80
2021/07/08 07:19:12;;;;;;;5.20;4.65;;;;;;;19.45;nan;101488.19;4959781;28;20114;-83
2021/07/08 07:21:39;;;;;;;6.03;4.90;;;;;;;19.60;nan;101494.72;4955757;28;20111;-84
2021/07/08 07:24:06;;;;;;;4.35;3.95;;;;;;;19.52;nan;101494.16;4940302;28;20039;-80
2021/07/08 07:26:32;;;;;;;5.63;5.13;;;;;;;19.46;nan;101489.94;4958619;28;20051;-83
2021/07/08 07:28:59;;;;;;;5.50;5.00;;;;;;;19.59;nan;101491.19;4958775;28;20061;-83
2021/07/08 07:31:26;;;;;;;5.72;4.45;;;;;;;19.59;nan;101501.91;4942279;28;20496;-81
2021/07/08 07:33:53;;;;;;;4.90;4.50;;;;;;;19.75;nan;101504.75;4957179;28;20115;-85
2021/07/08 07:36:19;;;;;;;4.57;4.18;;;;;;;19.71;nan;101500.47;4941829;28;20050;-84
2021/07/08 07:38:47;;;;;;;4.60;4.10;;;;;;;19.72;nan;101504.88;4957443;28;20045;-82
2021/07/08 07:41:14;;;;;;;4.57;4.18;;;;;;;19.71;nan;101503.16;4970040;28;20108;-82
2021/07/08 07:43:40;;;;;;;5.00;4.13;;;;;;;19.64;nan;101502.56;4964693;28;20042;-82
2021/07/08 07:46:07;;;;;;;5.78;4.40;;;;;;;19.80;nan;101508.09;4945056;28;20038;-82
2021/07/08 07:48:34;;;;;;;4.30;3.90;;;;;;;19.76;nan;101514.56;4943850;28;20043;-84
2021/07/08 07:51:01;;;;;;;7.50;4.40;;;;;;;19.80;nan;101524.19;4943541;28;20053;-83
2021/07/08 07:53:28;;;;;;;4.47;4.07;;;;;;;19.71;nan;101519.25;4941815;28;20047;-84
2021/07/08 07:55:55;;;;;;;4.60;4.20;;;;;;;19.82;nan;101516.94;4959687;28;20075;-83
2021/07/08 07:58:23;;;;;;;5.28;4.25;;;;;;;19.80;nan;101517.94;4961106;28;20049;-84
2021/07/08 08:00:49;;;;;;;5.47;4.30;;;;;;;19.68;nan;101508.66;4959136;28;20043;-83
2021/07/08 08:03:16;;;;;;;5.00;4.28;;;;;;;19.68;nan;101514.91;4943531;28;20100;-84
2021/07/08 08:08:36;;;;;;;5.45;4.80;;;;;;;19.24;nan;101503.38;4937139;28;20670;-85
2021/07/08 08:11:04;;;;;;;4.68;4.28;;;;;;;19.34;nan;101493.16;4939421;28;20051;-83
2021/07/08 08:13:32;;;;;;;5.25;4.75;;;;;;;19.40;nan;101496.44;4942586;28;20038;-83
2021/07/08 08:15:59;;;;;;;4.75;4.18;;;;;;;19.38;nan;101498.31;4966263;28;20042;-83
2021/07/08 08:18:26;;;;;;;5.97;4.60;;;;;;;19.27;nan;101500.59;4950265;28;20057;-84
2021/07/08 08:20:53;;;;;;;5.10;4.60;;;;;;;19.34;nan;101503.88;4941323;28;20038;-82
2021/07/08 08:23:20;;;;;;;5.22;4.50;;;;;;;19.19;nan;101500.06;4941193;28;20042;-83
2021/07/08 08:25:47;;;;;;;4.85;4.30;;;;;;;19.18;nan;101503.69;4939412;28;20094;-83
2021/07/08 08:28:14;;;;;;;4.72;4.35;;;;;;;19.11;nan;101508.41;4940185;28;20047;-83
2021/07/08 08:30:42;;;;;;;5.38;4.72;;;;;;;19.25;nan;101512.28;4939687;28;20074;-84
2021/07/08 08:33:09;;;;;;;5.25;4.45;;;;;;;19.30;nan;101518.34;4942001;28;20057;-84
2021/07/08 08:35:35;;;;;;;8.95;4.78;;;;;;;19.20;nan;101522.34;4940291;28;20295;-84
2021/07/08 08:38:03;;;;;;;4.72;4.28;;;;;;;19.13;nan;101516.38;4941270;28;20094;-85
2021/07/08 08:40:30;;;;;;;5.97;5.30;;;;;;;19.16;nan;101523.41;4940744;28;20038;-84
2021/07/08 08:42:56;;;;;;;6.05;5.10;;;;;;;19.14;nan;101520.78;4937486;29;20043;-83
2021/07/08 08:45:23;;;;;;;4.93;4.45;;;;;;;19.13;nan;101517.25;4942155;28;20087;-84
2021/07/08 08:48:17;;;;;;;6.28;5.05;;;;;;;19.04;nan;101528.34;4944050;28;20047;-83
2021/07/08 08:50:48;;;;;;;5.07;4.57;;;;;;;19.17;nan;101522.47;4953283;28;20055;-82
2021/07/08 08:53:16;;;;;;;5.05;4.55;;;;;;;18.97;nan;101526.00;4939511;28;20512;-79
2021/07/08 08:55:44;;;;;;;5.03;4.53;;;;;;;19.04;nan;101527.47;4971467;28;20053;-81
2021/07/08 08:58:16;;;;;;;6.10;4.85;;;;;;;19.09;nan;101529.03;4955838;28;20043;-78
2021/07/08 09:00:48;;;;;;;5.40;4.68;;;;;;;19.04;nan;101527.47;4940935;28;20039;-80
2021/07/08 09:03:28;;;;;;;6.65;5.28;;;;;;;19.18;nan;101527.78;4941871;28;20047;-80
2021/07/08 09:06:06;;;;;;;5.63;4.90;;;;;;;19.21;nan;101529.44;4947846;28;20070;-79
2021/07/08 09:08:34;;;;;;;6.85;5.05;;;;;;;19.16;nan;101531.44;4949652;28;20050;-79
2021/07/08 09:11:00;;;;;;;5.28;4.78;;;;;;;19.13;nan;101532.44;4972107;28;20043;-78
2021/07/08 09:13:43;;;;;;;5.80;5.22;;;;;;;19.19;nan;101542.03;4956328;28;20051;-80
2021/07/08 09:16:16;;;;;;;5.38;4.78;;;;;;;19.28;nan;101541.66;4971818;28;20642;-82
2021/07/08 09:18:43;;;;;;;5.60;4.63;;;;;;;19.23;nan;101532.94;4972604;28;20050;-78
2021/07/08 09:21:19;;;;;;;5.57;4.65;;;;;;;19.00;nan;101541.91;4955744;28;20050;-81
2021/07/08 09:24:06;;;;;;;6.25;5.32;;;;;;;18.76;nan;101536.66;4941775;28;20101;-80
2021/07/08 09:26:43;;;;;;;6.00;5.40;;;;;;;18.71;nan;101530.59;4951826;28;20547;-81
2021/07/08 09:29:18;;;;;;;5.35;4.85;;;;;;;18.89;nan;101520.94;4951404;28;20130;-84
2021/07/08 09:32:00;;;;;;;6.00;5.40;;;;;;;19.06;nan;101526.47;4940700;28;20129;-84
2021/07/08 09:34:30;;;;;;;5.90;4.93;;;;;;;19.23;nan;101530.25;4938913;28;20496;-82
2021/07/08 09:37:03;;;;;;;6.07;4.95;;;;;;;19.43;nan;101524.94;4941251;28;20038;-82
2021/07/08 09:39:43;;;;;;;11.00;5.50;;;;;;;19.57;nan;101517.16;4939684;28;20046;-79
2021/07/08 09:42:13;;;;;;;5.30;4.80;;;;;;;19.62;nan;101508.94;4943299;28;20298;-82
2021/07/08 09:44:41;;;;;;;5.20;4.70;;;;;;;19.62;nan;101498.19;4944744;28;20168;-79
2021/07/08 09:47:23;;;;;;;5.35;4.85;;;;;;;19.61;nan;101491.09;4960015;28;20050;-80
2021/07/08 09:49:50;;;;;;;6.00;5.40;;;;;;;19.64;nan;101488.28;4935292;28;20039;-81
2021/07/08 09:52:17;;;;;;;5.43;4.93;;;;;;;19.58;nan;101496.59;4954349;29;20047;-82
2021/07/08 09:55:12;;;;;;;6.53;5.30;;;;;;;19.72;nan;101491.47;4944221;28;20042;-81
2021/07/08 09:57:47;;;;;;;5.57;4.78;;;;;;;19.89;nan;101496.06;4944126;28;20043;-82
2021/07/08 10:00:17;;;;;;;5.55;4.90;;;;;;;19.87;nan;101508.69;4958422;28;20039;-81
2021/07/08 10:02:45;;;;;;;5.95;5.45;;;;;;;20.00;nan;101509.84;4960060;28;20173;-80
2021/07/08 10:05:13;;;;;;;5.80;5.30;;;;;;;20.17;nan;101517.97;4937502;28;20065;-79
2021/07/08 10:07:41;;;;;;;5.88;5.20;;;;;;;20.18;nan;101511.72;4954038;28;20056;-80
2021/07/08 10:10:09;;;;;;;6.05;4.82;;;;;;;20.18;nan;101519.75;4939705;28;20039;-82
2021/07/08 10:12:40;;;;;;;5.47;4.97;;;;;;;20.14;nan;101522.63;4942136;28;20093;-81
2021/07/08 10:15:09;;;;;;;6.05;4.85;;;;;;;20.13;nan;101521.78;4938362;28;20047;-81
2021/07/08 10:17:37;;;;;;;5.72;5.10;;;;;;;20.19;nan;101529.53;4939241;28;20047;-81
2021/07/08 10:20:06;;;;;;;5.38;4.95;;;;;;;20.28;nan;101522.88;4940229;28;20113;-81
2021/07/08 10:22:34;;;;;;;5.63;4.88;;;;;;;20.37;nan;101519.75;4940677;28;20508;-81
2021/07/08 10:25:01;;;;;;;5.28;4.78;;;;;;;20.47;nan;101517.53;4937399;28;20050;-77
2021/07/08 10:27:29;;;;;;;5.90;4.70;;;;;;;20.55;nan;101523.41;4949966;28;20500;-80
2021/07/08 10:29:58;;;;;;;5.50;5.00;;;;;;;20.55;nan;101520.72;4949595;28;20094;-81
2021/07/08 10:32:26;;;;;;;5.25;4.72;;;;;;;20.42;nan;101525.75;4930680;28;20068;-78
2021/07/08 10:34:53;;;;;;;5.38;4.88;;;;;;;20.40;nan;101529.47;4926067;28;20039;-79
2021/07/08 10:37:26;;;;;;;5.68;4.47;;;;;;;20.36;nan;101527.88;4907602;28;20170;-80
2021/07/08 10:40:03;;;;;;;5.20;4.68;;;;;;;20.46;nan;101527.38;4950087;28;20035;-81
2021/07/08 10:42:42;;;;;;;5.13;4.72;;;;;;;20.47;nan;101529.13;4941706;28;20046;-82
2021/07/08 10:45:35;;;;;;;4.63;4.22;;;;;;;20.47;nan;101526.44;4962068;28;20804;-81
2021/07/08 10:48:10;;;;;;;5.07;4.35;;;;;;;20.48;nan;101528.19;4957691;28;20074;-80
2021/07/08 10:50:47;;;;;;;4.97;4.55;;;;;;;20.46;nan;101530.06;4954344;28;21008;-82
2021/07/08 10:53:35;;;;;;;5.25;4.68;;;;;;;20.63;nan;101534.63;4952464;28;20055;-81
2021/07/08 10:56:09;;;;;;;4.90;4.43;;;;;;;20.57;nan;101542.97;4955277;28;20085;-81
2021/07/08 10:58:41;;;;;;;5.82;4.82;;;;;;;20.55;nan;101546.69;4939559;28;20761;-82
2021/07/08 11:01:30;;;;;;;4.75;4.35;;;;;;;20.55;nan;101546.69;4943323;28;20054;-79
2021/07/08 11:04:02;;;;;;;4.57;4.18;;;;;;;20.52;nan;101548.59;4966173;28;20051;-81
2021/07/08 11:06:29;;;;;;;7.00;4.85;;;;;;;20.40;nan;101543.75;4934881;28;20043;-80
2021/07/08 11:09:19;;;;;;;3.95;3.60;;;;;;;20.54;nan;101536.91;4943990;28;20113;-83
2021/07/08 11:11:46;;;;;;;4.20;3.78;;;;;;;20.48;nan;101532.69;4957261;28;20047;-82
2021/07/08 11:14:15;;;;;;;4.35;3.95;;;;;;;20.45;nan;101539.06;4956152;28;20050;-81
2021/07/08 11:16:43;;;;;;;4.22;3.78;;;;;;;20.47;nan;101541.69;4954921;28;20039;-83
2021/07/08 11:19:15;;;;;;;3.80;3.30;;;;;;;20.46;nan;101538.13;4954149;28;20054;-84
2021/07/08 11:22:06;;;;;;;4.85;3.83;;;;;;;20.57;nan;101536.75;4936995;28;20059;-82
2021/07/08 11:24:47;;;;;;;4.65;3.58;;;;;;;20.54;nan;101526.16;4937456;28;20053;-80
2021/07/08 11:27:31;;;;;;;3.92;3.40;;;;;;;20.56;nan;101517.06;4960691;28;20043;-82
2021/07/08 11:30:04;;;;;;;3.88;3.58;;;;;;;20.55;nan;101519.84;4931715;28;20049;-82
2021/07/08 11:32:47;;;;;;;5.15;3.22;;;;;;;20.65;nan;101522.00;4956704;28;20436;-82
2021/07/08 11:35:22;;;;;;;4.60;4.07;;;;;;;20.76;nan;101514.28;4942387;28;20102;-81
2021/07/08 11:37:57;;;;;;;4.28;3.17;;;;;;;20.60;nan;101504.34;4957705;28;20047;-80
2021/07/08 11:40:24;;;;;;;4.30;3.90;;;;;;;20.76;nan;101502.66;4974999;28;20070;-81
2021/07/08 11:42:52;;;;;;;5.18;3.60;;;;;;;20.77;nan;101507.97;4970260;28;20046;-83
2021/07/08 11:45:26;;;;;;;5.68;4.03;;;;;;;20.78;nan;101519.59;4936936;29;20133;-82
2021/07/08 11:47:53;;;;;;;;;;;;;;;20.68;nan;101516.50;4958184;28;20053;-82
2021/07/08 11:50:26;;;;;;;3.53;3.20;;;;;;;20.71;nan;101521.72;4935903;29;19926;-82
2021/07/08 11:53:06;;;;;;;3.50;3.20;;;;;;;20.74;nan;101524.22;4954830;29;20504;-83